Time;durP1;ratioP1;P1;durP2;ratioP2;P2;SDS_P1;SDS_P2;PMS_P1;PMS_P2;Temp;Humidity;BMP_temperature;BMP_pressure;BME280_temperature;BME280_humidity;BME280_pressure;Samples;Min_cycle;Max_cycle;Signal;HPM_P1;HPM_P2
2024/02/10 00:01:19;;;;;;;5.22;3.10;;;11.10;99.90;;;;;;5113445;28;20424;-53
2024/02/10 00:03:49;;;;;;;3.73;2.23;;;11.00;99.90;;;;;;5114469;28;20832;-57
2024/02/10 00:06:18;;;;;;;4.70;2.30;;;11.00;99.90;;;;;;5112875;28;20415;-56
2024/02/10 00:08:46;;;;;;;5.00;2.30;;;10.90;99.90;;;;;;5114713;28;20718;-54
2024/02/10 00:11:13;;;;;;;5.43;2.80;;;10.90;99.90;;;;;;5113628;28;20404;-56
2024/02/10 00:13:42;;;;;;;5.70;2.93;;;10.90;99.90;;;;;;5113768;28;20424;-57
2024/02/10 00:16:12;;;;;;;5.28;2.70;;;10.80;99.90;;;;;;5113303;28;20514;-53
2024/02/10 00:18:40;;;;;;;6.00;2.80;;;10.80;99.90;;;;;;5113435;28;20447;-56
2024/02/10 00:21:07;;;;;;;4.50;2.67;;;10.80;99.90;;;;;;5114492;28;20428;-54
2024/02/10 00:23:38;;;;;;;5.70;2.58;;;10.80;99.90;;;;;;5115487;28;20463;-54
2024/02/10 00:26:05;;;;;;;5.03;2.80;;;10.80;99.90;;;;;;5114886;28;20775;-56
2024/02/10 00:28:34;;;;;;;5.20;3.05;;;10.80;99.90;;;;;;5113928;28;20506;-56
2024/02/10 00:31:01;;;;;;;6.37;2.30;;;10.70;99.90;;;;;;5113984;28;20428;-57
2024/02/10 00:33:30;;;;;;;6.07;2.80;;;10.60;99.90;;;;;;5114375;28;20554;-57
2024/02/10 00:35:58;;;;;;;6.03;2.70;;;10.50;99.90;;;;;;5114501;28;20791;-57
2024/02/10 00:38:25;;;;;;;4.45;2.85;;;10.60;99.90;;;;;;5115600;28;20419;-56
2024/02/10 00:40:54;;;;;;;5.60;3.03;;;10.50;99.90;;;;;;5111927;28;20436;-56
2024/02/10 00:43:21;;;;;;;5.35;3.10;;;10.60;99.90;;;;;;5111143;28;20438;-55
2024/02/10 00:45:48;;;;;;;5.82;2.55;;;10.60;99.90;;;;;;5111141;28;20752;-56
2024/02/10 00:48:17;;;;;;;5.85;2.90;;;10.60;99.90;;;;;;5112393;28;20497;-53
2024/02/10 00:50:45;;;;;;;4.03;2.70;;;10.50;99.90;;;;;;5113411;28;20469;-54
2024/02/10 00:53:12;;;;;;;6.53;2.77;;;10.50;99.90;;;;;;5110353;28;20423;-53
2024/02/10 00:55:40;;;;;;;5.60;2.70;;;10.50;99.90;;;;;;5112359;28;20428;-56
2024/02/10 00:58:10;;;;;;;4.65;2.40;;;10.50;99.90;;;;;;5115725;28;20416;-56
2024/02/10 01:00:37;;;;;;;5.60;2.20;;;10.50;99.90;;;;;;5116406;28;20432;-56
2024/02/10 01:03:08;;;;;;;4.13;2.38;;;10.50;99.90;;;;;;5118095;28;20786;-56
2024/02/10 01:05:37;;;;;;;3.25;2.10;;;10.60;99.90;;;;;;5115029;28;20405;-55
2024/02/10 01:08:05;;;;;;;4.38;2.20;;;10.60;99.90;;;;;;5117196;28;20436;-54
2024/02/10 01:10:33;;;;;;;4.10;1.70;;;10.60;99.90;;;;;;5116491;28;20718;-56
2024/02/10 01:13:01;;;;;;;3.92;2.20;;;10.60;99.90;;;;;;5117386;28;20451;-55
2024/02/10 01:15:32;;;;;;;3.00;1.95;;;10.70;99.90;;;;;;5116938;28;20814;-58
2024/02/10 01:18:01;;;;;;;3.45;1.52;;;10.70;99.90;;;;;;5117258;28;20423;-53
2024/02/10 01:20:28;;;;;;;3.63;1.30;;;10.70;99.90;;;;;;5117278;28;20497;-55
2024/02/10 01:22:57;;;;;;;2.60;1.20;;;10.70;99.90;;;;;;5116109;28;20436;-55
2024/02/10 01:25:25;;;;;;;3.50;1.42;;;10.70;99.90;;;;;;5117013;28;20759;-53
2024/02/10 01:27:54;;;;;;;3.10;1.45;;;10.60;99.90;;;;;;5117055;28;20469;-54
2024/02/10 01:30:21;;;;;;;2.57;1.20;;;10.50;99.90;;;;;;5117520;27;20833;-56
2024/02/10 01:32:54;;;;;;;2.63;1.30;;;10.50;99.90;;;;;;5116196;27;20412;-56
2024/02/10 01:35:30;;;;;;;2.42;1.00;;;10.50;99.90;;;;;;5115665;28;20840;-54
2024/02/10 01:37:59;;;;;;;2.90;1.13;;;10.40;99.90;;;;;;5118011;28;20416;-52
2024/02/10 01:40:28;;;;;;;1.85;1.10;;;10.40;99.90;;;;;;5117034;28;20427;-57
2024/02/10 01:42:55;;;;;;;2.00;1.10;;;10.40;99.90;;;;;;5113225;28;20455;-54
2024/02/10 01:45:23;;;;;;;2.00;1.10;;;10.40;99.90;;;;;;5114128;28;20695;-56
2024/02/10 01:47:51;;;;;;;2.65;1.10;;;10.40;99.90;;;;;;5115340;28;20452;-55
2024/02/10 01:50:19;;;;;;;2.92;1.20;;;10.30;99.90;;;;;;5114186;27;20471;-57
2024/02/10 01:52:48;;;;;;;2.30;1.10;;;10.30;99.90;;;;;;5116578;28;20424;-55
2024/02/10 01:55:15;;;;;;;1.50;0.90;;;10.30;99.90;;;;;;5113795;28;20821;-54
2024/02/10 01:57:47;;;;;;;1.80;1.05;;;10.20;99.90;;;;;;5114657;28;20500;-55
2024/02/10 02:00:16;;;;;;;1.38;0.90;;;10.20;99.90;;;;;;5112494;28;20432;-55
2024/02/10 02:02:43;;;;;;;1.95;0.90;;;10.30;99.90;;;;;;5115666;28;20432;-56
2024/02/10 02:05:13;;;;;;;1.50;0.90;;;10.30;99.90;;;;;;5114824;28;20514;-57
2024/02/10 02:07:41;;;;;;;1.58;0.90;;;10.40;99.90;;;;;;5114344;28;20455;-63
2024/02/10 02:10:12;;;;;;;2.13;1.10;;;10.40;99.90;;;;;;5115682;28;20504;-56
2024/02/10 02:12:48;;;;;;;3.20;0.90;;;10.40;99.90;;;;;;5112551;28;20423;-57
2024/02/10 02:15:16;;;;;;;1.48;0.90;;;10.40;99.90;;;;;;5111657;28;20430;-57
2024/02/10 02:17:44;;;;;;;2.00;1.00;;;10.50;99.90;;;;;;5114484;28;20420;-53
2024/02/10 02:20:13;;;;;;;2.65;1.20;;;10.50;99.90;;;;;;5115740;28;20420;-56
2024/02/10 02:22:49;;;;;;;1.80;1.10;;;10.50;99.90;;;;;;5115376;28;20550;-55
2024/02/10 02:25:16;;;;;;;2.80;1.00;;;10.40;99.90;;;;;;5114771;28;20431;-54
2024/02/10 02:27:43;;;;;;;1.77;0.90;;;10.50;99.90;;;;;;5114559;28;20430;-54
2024/02/10 02:30:11;;;;;;;1.50;0.98;;;10.50;99.90;;;;;;5115711;28;20451;-56
2024/02/10 02:32:38;;;;;;;1.73;0.90;;;10.60;99.90;;;;;;5115672;28;20465;-56
2024/02/10 02:35:10;;;;;;;2.20;0.90;;;10.70;99.90;;;;;;5115414;28;20477;-56
2024/02/10 02:37:36;;;;;;;1.30;0.90;;;10.70;99.90;;;;;;5114636;28;20534;-57
2024/02/10 02:40:06;;;;;;;1.45;0.90;;;10.70;99.90;;;;;;5115710;28;20424;-57
2024/02/10 02:42:33;;;;;;;2.60;0.90;;;10.80;99.90;;;;;;5116079;28;20508;-57
2024/02/10 02:45:03;;;;;;;1.70;1.00;;;10.80;99.90;;;;;;5115608;28;20507;-56
2024/02/10 02:47:34;;;;;;;2.38;1.00;;;10.70;99.90;;;;;;5115850;28;20412;-55
2024/02/10 02:50:01;;;;;;;3.20;1.10;;;10.60;99.90;;;;;;5114895;28;20431;-55
2024/02/10 02:52:30;;;;;;;2.45;1.00;;;10.50;99.90;;;;;;5116238;28;20412;-55
2024/02/10 02:54:57;;;;;;;1.30;0.80;;;10.50;99.90;;;;;;5115136;28;20688;-57
2024/02/10 02:57:26;;;;;;;1.58;0.90;;;10.50;99.90;;;;;;5115974;28;20435;-57
2024/02/10 02:59:53;;;;;;;1.73;1.00;;;10.60;99.90;;;;;;5115855;28;20451;-56
2024/02/10 03:02:21;;;;;;;2.08;0.80;;;10.70;99.90;;;;;;5115614;28;20420;-54
2024/02/10 03:04:48;;;;;;;1.40;0.90;;;10.70;99.90;;;;;;5112663;28;20533;-57
2024/02/10 03:07:15;;;;;;;1.20;0.70;;;10.70;99.90;;;;;;5114650;28;20416;-56
2024/02/10 03:09:44;;;;;;;1.30;0.80;;;10.60;99.90;;;;;;5112408;28;20801;-58
2024/02/10 03:12:11;;;;;;;4.15;0.90;;;10.60;99.90;;;;;;5114993;28;20428;-57
2024/02/10 03:14:40;;;;;;;1.40;0.85;;;10.60;99.90;;;;;;5116157;28;20414;-54
2024/02/10 03:17:10;;;;;;;1.98;0.90;;;10.60;99.90;;;;;;5115546;28;20883;-55
2024/02/10 03:19:37;;;;;;;2.37;0.90;;;10.60;99.90;;;;;;5115214;28;20803;-56
2024/02/10 03:22:05;;;;;;;1.60;0.90;;;10.60;99.90;;;;;;5111515;28;20430;-55
2024/02/10 03:24:33;;;;;;;1.40;0.90;;;10.60;99.90;;;;;;5113906;28;20439;-56
2024/02/10 03:27:04;;;;;;;2.17;1.00;;;10.60;99.90;;;;;;5114759;28;20469;-57
2024/02/10 03:29:31;;;;;;;2.30;0.80;;;10.50;99.90;;;;;;5114564;28;20766;-57
2024/02/10 03:32:01;;;;;;;1.60;0.90;;;10.50;99.90;;;;;;5114819;28;20431;-55
2024/02/10 03:34:28;;;;;;;1.65;0.90;;;10.50;99.90;;;;;;5115019;28;20780;-58
2024/02/10 03:36:55;;;;;;;1.40;1.00;;;10.50;99.90;;;;;;5114992;28;20747;-57
2024/02/10 03:39:22;;;;;;;2.65;0.98;;;10.40;99.90;;;;;;5113967;28;20424;-56
2024/02/10 03:41:50;;;;;;;2.25;0.82;;;10.30;99.90;;;;;;5113616;28;20448;-54
2024/02/10 03:44:18;;;;;;;1.60;0.90;;;10.30;99.90;;;;;;5115005;28;20454;-56
2024/02/10 03:46:45;;;;;;;3.60;1.10;;;10.30;99.90;;;;;;5111035;28;20844;-56
2024/02/10 03:49:12;;;;;;;1.98;0.93;;;10.40;99.90;;;;;;5112995;28;20456;-57
2024/02/10 03:51:39;;;;;;;1.30;0.83;;;10.40;99.90;;;;;;5113234;28;20519;-55
2024/02/10 03:54:08;;;;;;;1.50;0.90;;;10.40;99.90;;;;;;5113239;28;20473;-56
2024/02/10 03:56:37;;;;;;;3.63;0.90;;;10.50;99.90;;;;;;5113354;28;20430;-57
2024/02/10 03:59:08;;;;;;;3.40;0.90;;;10.50;99.90;;;;;;5110808;28;20520;-55
2024/02/10 04:01:37;;;;;;;2.50;1.20;;;10.40;99.90;;;;;;5113774;28;20462;-55
2024/02/10 04:04:05;;;;;;;3.78;1.70;;;10.20;99.90;;;;;;5112854;28;20857;-60
2024/02/10 04:06:33;;;;;;;3.70;1.30;;;10.00;99.90;;;;;;5114851;28;20428;-55
2024/02/10 04:09:07;;;;;;;2.60;1.50;;;9.90;99.90;;;;;;5113512;28;20424;-56
2024/02/10 04:11:35;;;;;;;5.13;2.03;;;9.60;99.90;;;;;;5114848;28;20499;-55
2024/02/10 04:14:03;;;;;;;5.18;2.33;;;9.50;99.90;;;;;;5114093;28;20460;-53
2024/02/10 04:16:31;;;;;;;5.10;2.40;;;9.40;99.90;;;;;;5112711;28;20434;-54
2024/02/10 04:18:59;;;;;;;4.25;2.47;;;9.40;99.90;;;;;;5113297;28;20431;-56
2024/02/10 04:21:27;;;;;;;5.05;2.60;;;9.40;99.90;;;;;;5111588;28;20516;-54
2024/02/10 04:23:58;;;;;;;5.72;2.25;;;9.30;99.90;;;;;;5113092;28;20424;-55
2024/02/10 04:26:25;;;;;;;4.07;2.50;;;9.40;99.90;;;;;;5111553;28;20477;-55
2024/02/10 04:28:52;;;;;;;6.43;3.33;;;9.40;99.90;;;;;;5112357;28;20902;-56
2024/02/10 04:31:21;;;;;;;5.68;2.40;;;9.30;99.90;;;;;;5113248;28;20576;-54
2024/02/10 04:33:50;;;;;;;5.03;3.30;;;9.30;99.90;;;;;;5117834;28;20484;-56
2024/02/10 04:36:17;;;;;;;7.22;2.90;;;9.20;99.90;;;;;;5117762;28;20424;-54
2024/02/10 04:38:44;;;;;;;7.05;3.40;;;9.20;99.90;;;;;;5117822;28;20834;-54
2024/02/10 04:41:13;;;;;;;6.03;3.05;;;9.20;99.90;;;;;;5117331;28;20420;-55
2024/02/10 04:43:40;;;;;;;4.60;2.90;;;9.20;99.90;;;;;;5116446;28;20431;-56
2024/02/10 04:46:08;;;;;;;5.47;3.03;;;9.20;99.90;;;;;;5117272;28;20428;-57
2024/02/10 04:48:35;;;;;;;6.90;2.92;;;9.20;99.90;;;;;;5116306;28;20416;-56
2024/02/10 04:51:02;;;;;;;6.85;2.78;;;9.20;99.90;;;;;;5117068;28;20428;-55
2024/02/10 04:53:29;;;;;;;5.40;2.70;;;9.30;99.90;;;;;;5117838;28;20416;-56
2024/02/10 04:55:56;;;;;;;5.47;2.60;;;9.40;99.90;;;;;;5118411;28;20515;-56
2024/02/10 04:58:24;;;;;;;5.30;2.80;;;9.30;99.90;;;;;;5117170;28;20448;-56
2024/02/10 05:00:51;;;;;;;5.80;2.67;;;9.30;99.90;;;;;;5117654;28;20451;-57
2024/02/10 05:03:18;;;;;;;4.78;2.80;;;9.20;99.90;;;;;;5117702;28;20412;-54
2024/02/10 05:05:45;;;;;;;7.40;3.28;;;9.30;99.90;;;;;;5114405;28;20511;-53
2024/02/10 05:08:13;;;;;;;6.77;2.60;;;9.30;99.90;;;;;;5117357;28;20424;-54
2024/02/10 05:10:41;;;;;;;4.32;2.20;;;9.30;99.90;;;;;;5118582;28;20503;-54
2024/02/10 05:13:08;;;;;;;5.97;2.60;;;9.50;99.90;;;;;;5117192;28;20777;-55
2024/02/10 05:15:37;;;;;;;5.75;2.40;;;9.60;99.90;;;;;;5115249;28;20408;-55
2024/02/10 05:18:05;;;;;;;6.72;2.88;;;9.60;99.90;;;;;;5116743;28;20481;-52
2024/02/10 05:20:32;;;;;;;4.95;2.60;;;9.60;99.90;;;;;;5117412;28;20420;-54
2024/02/10 05:22:59;;;;;;;5.78;3.08;;;9.60;99.90;;;;;;5116540;28;20420;-55
2024/02/10 05:25:35;;;;;;;3.47;1.80;;;9.60;99.90;;;;;;5114968;28;20447;-56
2024/02/10 05:28:02;;;;;;;5.05;2.67;;;9.60;99.90;;;;;;5117755;28;20893;-58
2024/02/10 05:30:30;;;;;;;3.20;1.97;;;9.70;99.90;;;;;;5118089;28;20412;-56
2024/02/10 05:33:01;;;;;;;5.20;2.72;;;9.70;99.90;;;;;;5117596;28;20464;-57
2024/02/10 05:35:29;;;;;;;6.28;3.15;;;9.60;99.90;;;;;;5115508;28;20455;-56
2024/02/10 05:37:58;;;;;;;4.63;2.97;;;9.60;99.90;;;;;;5117533;28;20423;-57
2024/02/10 05:40:26;;;;;;;3.83;2.00;;;9.60;99.90;;;;;;5114647;28;20419;-56
2024/02/10 05:42:58;;;;;;;4.85;2.33;;;9.60;99.90;;;;;;5115879;28;20710;-53
2024/02/10 05:45:26;;;;;;;6.68;2.53;;;9.60;99.90;;;;;;5113372;28;20438;-57
2024/02/10 05:47:53;;;;;;;4.97;3.00;;;9.70;99.90;;;;;;5116206;28;20473;-57
2024/02/10 05:50:23;;;;;;;5.03;2.70;;;9.80;99.90;;;;;;5116994;28;20460;-57
2024/02/10 05:52:51;;;;;;;7.22;3.17;;;9.90;99.90;;;;;;5115647;28;20500;-56
2024/02/10 05:55:21;;;;;;;5.30;2.60;;;9.90;99.90;;;;;;5115630;28;20456;-57
2024/02/10 05:57:48;;;;;;;6.43;2.53;;;9.80;99.90;;;;;;5111892;28;20447;-57
2024/02/10 06:00:16;;;;;;;6.18;2.90;;;9.70;99.90;;;;;;5114971;28;20416;-56
2024/02/10 06:02:43;;;;;;;5.43;3.33;;;9.70;99.90;;;;;;5114068;28;20481;-57
2024/02/10 06:05:12;;;;;;;5.78;2.60;;;9.70;99.90;;;;;;5115573;28;20709;-57
2024/02/10 06:07:41;;;;;;;4.13;2.22;;;9.70;99.90;;;;;;5115252;28;20841;-55
2024/02/10 06:10:12;;;;;;;6.85;3.50;;;9.70;99.90;;;;;;5113338;28;20463;-57
2024/02/10 06:12:39;;;;;;;4.88;2.80;;;9.80;99.90;;;;;;5116081;28;20495;-57
2024/02/10 06:15:09;;;;;;;5.00;2.60;;;9.80;99.90;;;;;;5116496;28;20417;-54
2024/02/10 06:17:38;;;;;;;6.35;2.80;;;9.90;99.90;;;;;;5116471;28;20424;-57
2024/02/10 06:20:06;;;;;;;4.53;2.40;;;10.00;99.90;;;;;;5116585;28;20752;-57
2024/02/10 06:22:34;;;;;;;5.57;2.70;;;10.00;99.90;;;;;;5115609;28;20764;-56
2024/02/10 06:25:03;;;;;;;4.93;2.60;;;10.00;99.90;;;;;;5115420;28;20528;-56
2024/02/10 06:27:34;;;;;;;5.47;2.60;;;9.90;99.90;;;;;;5113887;28;20877;-55
2024/02/10 06:30:01;;;;;;;5.60;2.97;;;9.80;99.90;;;;;;5115488;28;20436;-54
2024/02/10 06:32:28;;;;;;;6.22;2.35;;;9.80;99.90;;;;;;5114652;28;20443;-58
2024/02/10 06:34:55;;;;;;;5.18;2.90;;;9.80;99.90;;;;;;5116494;28;20752;-55
2024/02/10 06:37:25;;;;;;;7.67;3.23;;;9.80;99.90;;;;;;5115794;28;20477;-56
2024/02/10 06:39:52;;;;;;;5.95;3.10;;;9.80;99.90;;;;;;5116200;28;20816;-56
2024/02/10 06:42:20;;;;;;;5.88;3.38;;;9.80;99.90;;;;;;5115511;28;20412;-53
2024/02/10 06:44:47;;;;;;;4.80;2.33;;;9.90;99.90;;;;;;5114481;28;20432;-53
2024/02/10 06:47:14;;;;;;;5.30;2.63;;;10.00;99.90;;;;;;5114949;28;20443;-50
2024/02/10 06:49:41;;;;;;;6.30;3.00;;;10.00;99.90;;;;;;5116251;28;20527;-55
2024/02/10 06:52:08;;;;;;;4.60;2.60;;;10.00;99.90;;;;;;5115879;28;20461;-54
2024/02/10 06:54:37;;;;;;;5.73;2.80;;;10.00;99.90;;;;;;5114293;28;20866;-53
2024/02/10 06:57:04;;;;;;;5.68;2.85;;;10.00;99.90;;;;;;5115103;28;20505;-54
2024/02/10 06:59:32;;;;;;;7.13;3.00;;;10.00;99.90;;;;;;5115019;28;20456;-52
2024/02/10 07:01:59;;;;;;;4.78;2.60;;;10.00;99.90;;;;;;5115183;28;20451;-55
2024/02/10 07:04:26;;;;;;;5.30;2.80;;;10.10;99.90;;;;;;5115180;28;20837;-55
2024/02/10 07:06:54;;;;;;;7.15;3.00;;;10.10;99.90;;;;;;5114512;28;20444;-50
2024/02/10 07:09:22;;;;;;;5.90;3.20;;;10.20;99.90;;;;;;5114813;28;20422;-56
2024/02/10 07:11:49;;;;;;;5.28;2.50;;;10.30;99.90;;;;;;5116663;28;20817;-53
2024/02/10 07:14:18;;;;;;;5.88;2.85;;;10.30;99.90;;;;;;5108722;28;20442;-53
2024/02/10 07:16:46;;;;;;;4.85;2.50;;;10.30;99.90;;;;;;5111298;28;20436;-50
2024/02/10 07:19:16;;;;;;;5.80;3.30;;;10.30;99.90;;;;;;5113831;27;20828;-55
2024/02/10 07:21:45;;;;;;;14.80;8.13;;;10.30;99.90;;;;;;5105557;28;20418;-54
2024/02/10 07:24:13;;;;;;;6.83;3.97;;;10.30;99.90;;;;;;5106954;28;20460;-53
2024/02/10 07:26:42;;;;;;;7.32;4.95;;;10.20;99.90;;;;;;5114054;28;20836;-54
2024/02/10 07:29:11;;;;;;;6.82;4.47;;;10.00;99.90;;;;;;5115364;28;20442;-52
2024/02/10 07:31:39;;;;;;;7.32;3.80;;;9.90;99.90;;;;;;5113630;28;20423;-53
2024/02/10 07:34:08;;;;;;;7.93;4.50;;;9.80;99.90;;;;;;5115876;28;20427;-53
2024/02/10 07:36:35;;;;;;;11.30;6.15;;;9.80;99.90;;;;;;5115341;28;20440;-53
2024/02/10 07:39:06;;;;;;;9.32;5.03;;;9.70;99.90;;;;;;5114706;28;20436;-52
2024/02/10 07:41:33;;;;;;;8.93;4.75;;;9.70;99.90;;;;;;5114456;28;20464;-55
2024/02/10 07:44:02;;;;;;;8.45;5.05;;;9.80;99.90;;;;;;5115716;28;20428;-54
2024/02/10 07:46:34;;;;;;;7.97;4.32;;;9.80;99.90;;;;;;5113977;28;20462;-52
2024/02/10 07:49:03;;;;;;;7.10;4.65;;;9.90;99.90;;;;;;5111899;28;20434;-53
2024/02/10 07:51:31;;;;;;;9.52;4.50;;;9.80;99.90;;;;;;5104356;28;20440;-56
2024/02/10 07:53:59;;;;;;;7.15;3.90;;;9.80;99.90;;;;;;5105763;28;20455;-54
2024/02/10 07:56:28;;;;;;;6.45;3.90;;;9.80;99.90;;;;;;5113714;28;20434;-55
2024/02/10 07:58:59;;;;;;;9.68;4.47;;;9.80;99.90;;;;;;5113547;28;20855;-55
2024/02/10 08:01:26;;;;;;;8.75;4.68;;;9.70;99.90;;;;;;5102907;28;20435;-49
2024/02/10 08:03:54;;;;;;;9.00;4.90;;;9.60;99.90;;;;;;5112917;28;20502;-50
2024/02/10 08:06:26;;;;;;;8.77;5.28;;;9.60;99.90;;;;;;5115357;28;20782;-55
2024/02/10 08:08:57;;;;;;;10.10;5.30;;;9.60;99.90;;;;;;5114015;28;20439;-51
2024/02/10 08:11:25;;;;;;;9.85;3.92;;;9.70;99.90;;;;;;5102862;28;20809;-53
2024/02/10 08:13:53;;;;;;;9.32;5.65;;;9.60;99.90;;;;;;5117937;28;20419;-53
2024/02/10 08:16:21;;;;;;;8.05;4.45;;;9.70;99.90;;;;;;5113793;28;20461;-52
2024/02/10 08:18:50;;;;;;;9.40;5.57;;;9.60;99.90;;;;;;5114178;28;20960;-55
2024/02/10 08:21:20;;;;;;;9.13;5.30;;;9.60;99.90;;;;;;5116812;28;20440;-50
2024/02/10 08:23:52;;;;;;;9.35;4.97;;;9.70;99.90;;;;;;5116605;28;20430;-55
2024/02/10 08:26:20;;;;;;;9.95;5.47;;;9.70;99.90;;;;;;5117110;28;20764;-55
2024/02/10 08:28:50;;;;;;;8.55;5.20;;;9.70;99.90;;;;;;5117264;28;20424;-53
2024/02/10 08:31:18;;;;;;;8.95;5.20;;;9.80;99.90;;;;;;5114352;28;20522;-54
2024/02/10 08:33:47;;;;;;;9.95;5.07;;;9.70;99.90;;;;;;5114452;28;20412;-51
2024/02/10 08:36:15;;;;;;;10.10;5.30;;;9.80;99.90;;;;;;5109856;28;21100;-54
2024/02/10 08:38:42;;;;;;;8.40;4.88;;;9.80;99.90;;;;;;5116425;28;20529;-48
2024/02/10 08:41:10;;;;;;;9.50;5.07;;;9.80;99.90;;;;;;5116120;27;20416;-52
2024/02/10 08:43:47;;;;;;;8.07;4.78;;;9.80;99.90;;;;;;5116724;28;20448;-54
2024/02/10 08:46:14;;;;;;;8.43;5.40;;;9.70;99.90;;;;;;5117020;28;20509;-55
2024/02/10 08:48:42;;;;;;;10.00;6.00;;;9.60;99.90;;;;;;5109889;28;20420;-53
2024/02/10 08:51:11;;;;;;;8.52;5.18;;;9.60;99.90;;;;;;5117326;28;20420;-53
2024/02/10 08:53:39;;;;;;;12.43;5.65;;;9.70;99.90;;;;;;5114275;27;20491;-55
2024/02/10 08:56:10;;;;;;;8.55;5.45;;;9.60;99.90;;;;;;5116955;28;20473;-56
2024/02/10 08:58:40;;;;;;;9.63;5.70;;;9.70;99.90;;;;;;5117220;28;20920;-55
2024/02/10 09:01:15;;;;;;;10.77;5.00;;;9.70;99.90;;;;;;5115916;28;20424;-54
2024/02/10 09:03:41;;;;;;;9.02;5.00;;;9.70;99.90;;;;;;5107075;28;20417;-55
2024/02/10 09:06:08;;;;;;;8.90;5.90;;;9.80;99.90;;;;;;5115206;28;20467;-53
2024/02/10 09:08:39;;;;;;;8.23;4.63;;;9.80;99.90;;;;;;5115907;28;20485;-53
2024/02/10 09:11:06;;;;;;;8.48;5.80;;;9.90;99.90;;;;;;5106246;28;20867;-53
2024/02/10 09:13:33;;;;;;;7.93;4.68;;;10.00;99.90;;;;;;5113495;28;20855;-54
2024/02/10 09:16:03;;;;;;;9.15;5.68;;;10.00;99.90;;;;;;5116538;28;20786;-54
2024/02/10 09:18:30;;;;;;;10.40;5.07;;;10.00;99.90;;;;;;5112776;28;20586;-54
2024/02/10 09:20:57;;;;;;;10.30;4.70;;;9.90;99.90;;;;;;5116407;28;20489;-54
2024/02/10 09:23:27;;;;;;;9.65;5.30;;;10.00;99.90;;;;;;5114868;28;20496;-53
2024/02/10 09:25:54;;;;;;;11.60;6.50;;;10.00;99.90;;;;;;5115677;28;20424;-53
2024/02/10 09:28:21;;;;;;;9.25;5.28;;;10.10;99.90;;;;;;5116750;28;20882;-54
2024/02/10 09:30:47;;;;;;;8.68;5.28;;;10.10;99.90;;;;;;5114604;28;20432;-54
2024/02/10 09:33:22;;;;;;;9.13;4.47;;;10.10;99.90;;;;;;5115462;28;20496;-54
2024/02/10 09:35:50;;;;;;;9.98;5.93;;;10.30;99.90;;;;;;5112080;27;20924;-54
2024/02/10 09:38:20;;;;;;;11.15;5.95;;;10.30;99.90;;;;;;5102583;28;20848;-56
2024/02/10 09:40:47;;;;;;;26.97;16.30;;;10.40;99.90;;;;;;5114026;28;20841;-55
2024/02/10 09:43:15;;;;;;;16.35;10.27;;;10.50;99.90;;;;;;5108110;28;20518;-54
2024/02/10 09:45:45;;;;;;;13.10;6.00;;;10.50;99.90;;;;;;5114894;28;20514;-55
2024/02/10 09:48:15;;;;;;;8.57;4.57;;;10.50;99.90;;;;;;5114982;28;20440;-54
2024/02/10 09:50:43;;;;;;;6.07;3.25;;;10.60;99.90;;;;;;5113923;28;20440;-55
2024/02/10 09:53:10;;;;;;;8.65;3.83;;;10.50;99.90;;;;;;5115091;28;20495;-54
2024/02/10 09:55:36;;;;;;;7.40;3.38;;;10.50;99.90;;;;;;5113160;28;20456;-56
2024/02/10 09:58:06;;;;;;;6.18;3.70;;;10.50;99.90;;;;;;5113291;28;20471;-55
2024/02/10 10:00:37;;;;;;;5.97;3.08;;;10.50;99.90;;;;;;5114726;28;20432;-56
2024/02/10 10:03:05;;;;;;;6.72;3.85;;;10.50;99.90;;;;;;5116776;28;20854;-54
2024/02/10 10:05:42;;;;;;;7.47;3.30;;;10.50;99.90;;;;;;5100085;28;20430;-55
2024/02/10 10:08:11;;;;;;;7.80;3.23;;;10.50;99.90;;;;;;5106809;27;20489;-55
2024/02/10 10:10:38;;;;;;;6.90;3.97;;;10.50;99.90;;;;;;5104072;28;20493;-55
2024/02/10 10:13:09;;;;;;;6.73;4.10;;;10.50;99.90;;;;;;5107865;28;20424;-56
2024/02/10 10:15:38;;;;;;;9.20;4.93;;;10.50;99.90;;;;;;5114690;28;20838;-56
2024/02/10 10:18:14;;;;;;;7.33;4.10;;;10.40;99.90;;;;;;5113595;28;20474;-56
2024/02/10 10:20:44;;;;;;;6.60;4.68;;;10.40;99.90;;;;;;5115382;28;20435;-52
2024/02/10 10:23:15;;;;;;;6.45;4.15;;;10.40;99.90;;;;;;5113948;28;20546;-55
2024/02/10 10:25:43;;;;;;;10.80;5.18;;;10.40;99.90;;;;;;5112629;28;20428;-55
2024/02/10 10:28:13;;;;;;;8.88;4.10;;;10.40;99.90;;;;;;5113320;28;20440;-56
2024/02/10 10:30:43;;;;;;;7.25;4.80;;;10.30;99.90;;;;;;5114334;27;20899;-54
2024/02/10 10:33:11;;;;;;;8.13;4.50;;;10.30;99.90;;;;;;5113692;28;20565;-55
2024/02/10 10:35:41;;;;;;;11.63;5.20;;;10.20;99.90;;;;;;5114187;28;20427;-56
2024/02/10 10:38:09;;;;;;;7.10;4.47;;;10.20;99.90;;;;;;5108070;28;20515;-55
2024/02/10 10:40:38;;;;;;;10.02;4.90;;;10.30;99.90;;;;;;5113142;28;20810;-56
2024/02/10 10:43:10;;;;;;;7.32;4.53;;;10.20;99.90;;;;;;5114530;28;20444;-54
2024/02/10 10:45:37;;;;;;;14.80;4.65;;;10.30;99.90;;;;;;5114754;28;20439;-58
2024/02/10 10:48:05;;;;;;;8.48;5.07;;;10.40;99.90;;;;;;5114416;28;20985;-60
2024/02/10 10:50:33;;;;;;;5.88;3.70;;;10.40;99.90;;;;;;5113583;28;20416;-58
2024/02/10 10:53:06;;;;;;;7.30;4.18;;;10.40;99.90;;;;;;5113741;28;20457;-56
2024/02/10 10:55:38;;;;;;;7.00;4.10;;;10.50;99.90;;;;;;5106148;28;20418;-58
2024/02/10 10:58:09;;;;;;;9.32;4.40;;;10.60;99.90;;;;;;5110096;28;20416;-59
2024/02/10 11:00:42;;;;;;;9.73;4.68;;;10.70;99.90;;;;;;5109307;28;20436;-60
2024/02/10 11:03:08;;;;;;;10.25;5.25;;;10.80;99.90;;;;;;5103795;27;20702;-57
2024/02/10 11:05:42;;;;;;;10.50;5.70;;;10.80;99.90;;;;;;5107660;28;20428;-57
2024/02/10 11:08:13;;;;;;;12.88;6.35;;;10.70;99.90;;;;;;5108938;28;20424;-57
2024/02/10 11:10:44;;;;;;;12.52;6.22;;;10.80;99.90;;;;;;5104908;28;20428;-55
2024/02/10 11:13:22;;;;;;;13.10;6.97;;;10.70;99.90;;;;;;5114337;27;20416;-56
2024/02/10 11:16:00;;;;;;;9.20;5.85;;;10.80;99.90;;;;;;5114409;28;20473;-57
2024/02/10 11:18:27;;;;;;;13.70;6.95;;;10.90;99.90;;;;;;5112698;28;20809;-56
2024/02/10 11:21:06;;;;;;;12.02;6.55;;;10.90;99.90;;;;;;5114448;28;20474;-58
2024/02/10 11:23:33;;;;;;;12.07;7.10;;;11.00;99.90;;;;;;5107887;28;20469;-56
2024/02/10 11:26:05;;;;;;;11.90;6.27;;;11.00;99.90;;;;;;5114573;28;20768;-56
2024/02/10 11:28:32;;;;;;;9.98;5.70;;;10.90;99.90;;;;;;5114468;28;20512;-56
2024/02/10 11:31:08;;;;;;;14.43;6.32;;;10.90;99.90;;;;;;5115308;28;20548;-54
2024/02/10 11:33:35;;;;;;;12.70;7.07;;;10.80;99.90;;;;;;5115169;28;20840;-53
2024/02/10 11:36:02;;;;;;;11.90;7.20;;;10.90;99.90;;;;;;5108390;28;20459;-55
2024/02/10 11:38:30;;;;;;;11.57;7.22;;;11.00;99.90;;;;;;5112956;28;20532;-52
2024/02/10 11:40:57;;;;;;;12.10;6.72;;;11.00;99.90;;;;;;5113478;28;20758;-50
2024/02/10 11:43:26;;;;;;;12.35;6.80;;;10.90;99.90;;;;;;5107492;28;20420;-54
2024/02/10 11:45:54;;;;;;;12.88;6.85;;;11.00;99.90;;;;;;5114344;28;20440;-53
2024/02/10 11:48:22;;;;;;;9.93;5.50;;;11.20;99.90;;;;;;5114340;28;20431;-52
2024/02/10 11:50:50;;;;;;;10.40;6.32;;;11.20;99.90;;;;;;5102386;28;20530;-55
2024/02/10 11:53:17;;;;;;;11.38;6.65;;;11.20;99.90;;;;;;5111900;28;20431;-51
2024/02/10 11:55:47;;;;;;;10.48;6.22;;;11.20;99.90;;;;;;5105900;28;20506;-53
2024/02/10 11:58:16;;;;;;;11.20;6.20;;;11.00;99.90;;;;;;5102544;28;21017;-53
2024/02/10 12:00:45;;;;;;;12.02;6.38;;;11.00;99.90;;;;;;5100852;28;20535;-55
2024/02/10 12:03:20;;;;;;;10.75;5.95;;;11.00;99.90;;;;;;5095382;28;20499;-53
2024/02/10 12:05:48;;;;;;;9.52;5.80;;;11.10;99.90;;;;;;5106132;28;20439;-53
2024/02/10 12:08:15;;;;;;;11.98;6.07;;;11.00;99.90;;;;;;5099482;28;20481;-55
2024/02/10 12:10:44;;;;;;;7.80;4.72;;;10.90;99.90;;;;;;5100342;28;20734;-53
2024/02/10 12:13:10;;;;;;;8.83;5.57;;;10.90;99.90;;;;;;5104988;28;20420;-53
2024/02/10 12:15:38;;;;;;;7.60;4.57;;;11.00;99.90;;;;;;5111453;28;20849;-51
2024/02/10 12:18:08;;;;;;;7.50;5.20;;;11.10;99.90;;;;;;5107842;28;20523;-54
2024/02/10 12:20:37;;;;;;;10.68;6.15;;;11.20;99.90;;;;;;5114194;28;20416;-56
2024/02/10 12:23:04;;;;;;;8.85;5.03;;;11.30;99.90;;;;;;5113732;28;21040;-55
2024/02/10 12:25:32;;;;;;;8.13;4.72;;;11.30;99.90;;;;;;5112721;28;20408;-54
2024/02/10 12:27:59;;;;;;;9.85;6.05;;;11.30;99.90;;;;;;5113922;28;20821;-55
2024/02/10 12:30:26;;;;;;;8.55;5.18;;;11.30;99.90;;;;;;5105451;28;20457;-54
2024/02/10 12:32:53;;;;;;;9.40;4.93;;;11.30;99.90;;;;;;5097665;28;20452;-51
2024/02/10 12:35:21;;;;;;;7.47;4.77;;;11.30;99.90;;;;;;5113749;28;20428;-54
2024/02/10 12:37:49;;;;;;;9.23;5.20;;;11.30;99.90;;;;;;5113607;28;20411;-55
2024/02/10 12:40:18;;;;;;;8.27;5.18;;;11.30;99.90;;;;;;5113736;28;20408;-51
2024/02/10 12:42:46;;;;;;;8.82;5.20;;;11.30;99.90;;;;;;5112027;28;21019;-54
2024/02/10 12:45:14;;;;;;;8.35;4.97;;;11.20;99.90;;;;;;5113945;28;20999;-54
2024/02/10 12:47:42;;;;;;;8.05;5.05;;;11.30;99.90;;;;;;5112486;28;20706;-53
2024/02/10 12:50:10;;;;;;;9.32;4.60;;;11.30;99.90;;;;;;5110910;28;20430;-53
2024/02/10 12:52:39;;;;;;;7.88;4.75;;;11.40;99.90;;;;;;5112553;28;20420;-54
2024/02/10 12:55:09;;;;;;;7.28;4.43;;;11.30;99.90;;;;;;5113106;28;20431;-57